| time (UTC) | temp F | wind direction | speed knots | gust knots | rain 1hr in | rain 24hr in | rain mn in | humidity % | barometer mb |
| 20260507091539 | 41 | 268 | 7.0 | 12.2 | 0.00 | 0.00 | 0.00 | 59 | 1006.4 |
| 20260507090038 | 42 | 262 | 6.1 | 10.4 | 0.00 | 0.00 | 0.00 | 59 | 1006.1 |
| 20260507084541 | 42 | 273 | 7.0 | 11.3 | 0.00 | 0.00 | 0.00 | 58 | 1006.2 |
| 20260507083040 | 42 | 289 | 5.2 | 11.3 | 0.00 | 0.00 | 0.00 | 58 | 1006.1 |
| 20260507081538 | 43 | 249 | 4.3 | 10.4 | 0.00 | 0.00 | 0.00 | 57 | 1006.3 |
| 20260507080039 | 43 | 277 | 6.1 | 11.3 | 0.00 | 0.00 | 0.00 | 56 | 1006.4 |
| 20260507074539 | 43 | 247 | 5.2 | 11.3 | 0.00 | 0.00 | 0.00 | 57 | 1006.2 |
| 20260507073040 | 43 | 281 | 6.1 | 11.3 | 0.00 | 0.00 | 0.00 | 57 | 1006.1 |
| 20260507071538 | 43 | 257 | 6.1 | 12.2 | 0.00 | 0.00 | 0.00 | 56 | 1006.2 |
| 20260507070040 | 44 | 240 | 4.3 | 12.2 | 0.00 | 0.00 | 0.00 | 56 | 1006.2 |
| 20260507064542 | 44 | 265 | 7.8 | 12.2 | 0.00 | 0.00 | 0.00 | 56 | 1006.4 |
| 20260507063037 | 45 | 275 | 5.2 | 13.9 | 0.00 | 0.00 | 0.00 | 58 | 1006.4 |
| 20260507061534 | 45 | 273 | 9.6 | 15.6 | 0.00 | 0.00 | 0.00 | 64 | 1006.5 |
| 20260507060039 | 44 | 264 | 5.2 | 13.0 | 0.00 | 0.00 | 0.00 | 65 | 1006.5 |
| 20260507054541 | 43 | 236 | 2.6 | 4.3 | 0.00 | 0.00 | 0.00 | 53 | 1006.6 |
| 20260507053038 | 43 | 230 | 0.9 | 4.3 | 0.00 | 0.00 | 0.00 | 56 | 1006.6 |
| 20260507051537 | 43 | 203 | 0.9 | 3.5 | 0.00 | 0.00 | 0.00 | 60 | 1006.5 |
| 20260507050039 | 44 | 234 | 1.7 | 4.3 | 0.00 | 0.00 | 0.00 | 63 | 1006.7 |
| 20260507044534 | 45 | 241 | 0.9 | 4.3 | 0.00 | 0.00 | 0.00 | 65 | 1006.7 |
| 20260507043039 | 46 | 238 | 1.7 | 5.2 | 0.00 | 0.00 | 0.00 | 66 | 1006.9 |
| 20260507041550 | 46 | 250 | 2.6 | 6.1 | 0.00 | 0.00 | 0.00 | 67 | 1007.0 |
| 20260507040037 | 46 | 223 | 2.6 | 6.1 | 0.00 | 0.00 | 0.00 | 67 | 1007.1 |
| 20260507034538 | 47 | 245 | 2.6 | 6.1 | 0.00 | 0.00 | 0.00 | 68 | 1007.2 |
| 20260507033036 | 47 | 241 | 2.6 | 7.8 | 0.00 | 0.00 | 0.00 | 68 | 1007.3 |
| 20260507031538 | 47 | 221 | 3.5 | 7.8 | 0.00 | 0.00 | 0.00 | 68 | 1007.4 |
| 20260507030038 | 47 | 213 | 3.5 | 7.8 | 0.00 | 0.00 | 0.00 | 68 | 1007.4 |
| 20260507024538 | 48 | 224 | 3.5 | 8.7 | 0.00 | 0.00 | 0.00 | 68 | 1007.4 |
| 20260507023037 | 48 | 181 | 2.6 | 8.7 | 0.00 | 0.00 | 0.00 | 68 | 1007.4 |
| 20260507021537 | 48 | 249 | 2.6 | 7.8 | 0.00 | 0.00 | 0.00 | 68 | 1007.3 |
| 20260507020032 | 48 | 230 | 2.6 | 8.7 | 0.00 | 0.00 | 0.00 | 68 | 1007.3 |
| 20260507014550 | 48 | 200 | 3.5 | 8.7 | 0.00 | 0.00 | 0.00 | 67 | 1007.4 |
| 20260507013047 | 48 | 198 | 3.5 | 7.8 | 0.00 | 0.00 | 0.00 | 67 | 1007.4 |
| 20260507011541 | 48 | 201 | 3.5 | 8.7 | 0.00 | 0.00 | 0.00 | 67 | 1007.4 |
| 20260507010037 | 49 | 211 | 4.3 | 8.7 | 0.00 | 0.00 | 0.00 | 67 | 1007.4 |
| 20260507004539 | 49 | 226 | 2.6 | 7.8 | 0.00 | 0.00 | 0.00 | 66 | 1007.4 |
| 20260507003034 | 49 | 223 | 2.6 | 9.6 | 0.00 | 0.00 | 0.00 | 66 | 1007.2 |
| 20260507001554 | 49 | 190 | 4.3 | 9.6 | 0.00 | 0.00 | 0.00 | 64 | 1007.0 |
| 20260507000039 | 50 | 212 | 4.3 | 9.6 | 0.00 | 0.00 | 0.00 | 63 | 1006.9 |
| 20260506234537 | 50 | 210 | 5.2 | 9.6 | 0.00 | 0.00 | 0.00 | 62 | 1006.9 |
| 20260506233044 | 51 | 204 | 3.5 | 9.6 | 0.00 | 0.00 | 0.00 | 62 | 1006.7 |
| 20260506231540 | 51 | 178 | 5.2 | 9.6 | 0.00 | 0.00 | 0.00 | 61 | 1006.4 |
| 20260506230035 | 52 | 211 | 3.5 | 9.6 | 0.00 | 0.00 | 0.00 | 61 | 1006.4 |
| 20260506224540 | 51 | 181 | 5.2 | 11.3 | 0.00 | 0.00 | 0.00 | 62 | 1006.6 |
| 20260506223047 | 51 | 190 | 4.3 | 11.3 | 0.00 | 0.00 | 0.00 | 62 | 1006.6 |
| 20260506221538 | 51 | 192 | 4.3 | 9.6 | 0.00 | 0.00 | 0.00 | 62 | 1006.4 |
| 20260506220038 | 51 | 174 | 4.3 | 10.4 | 0.00 | 0.00 | 0.00 | 61 | 1006.5 |
| 20260506214540 | 52 | 154 | 4.3 | 11.3 | 0.00 | 0.00 | 0.00 | 60 | 1006.6 |
| 20260506213037 | 52 | 169 | 3.5 | 9.6 | 0.00 | 0.00 | 0.00 | 59 | 1006.6 |
| 20260506211541 | 53 | 168 | 3.5 | 9.6 | 0.00 | 0.00 | 0.00 | 58 | 1006.5 |
| 20260506210041 | 53 | 190 | 4.3 | 12.2 | 0.00 | 0.00 | 0.00 | 58 | 1006.5 |
| 20260506204537 | 53 | 216 | 6.1 | 12.2 | 0.00 | 0.00 | 0.00 | 58 | 1006.5 |
| 20260506203043 | 54 | 113 | 4.3 | 9.6 | 0.00 | 0.00 | 0.00 | 56 | 1006.4 |
| 20260506201537 | 54 | 186 | 4.3 | 10.4 | 0.00 | 0.00 | 0.00 | 56 | 1006.6 |
| 20260506200049 | 54 | 207 | 5.2 | 11.3 | 0.00 | 0.00 | 0.00 | 56 | 1006.9 |
| 20260506194538 | 55 | 125 | 4.3 | 10.4 | 0.00 | 0.00 | 0.00 | 56 | 1006.9 |
| 20260506193033 | 55 | 179 | 3.5 | 10.4 | 0.00 | 0.00 | 0.00 | 56 | 1007.0 |
| 20260506191539 | 53 | 262 | 3.5 | 11.3 | 0.00 | 0.00 | 0.00 | 59 | 1007.1 |
| 20260506190038 | 52 | 186 | 3.5 | 9.6 | 0.00 | 0.00 | 0.00 | 61 | 1007.0 |
| 20260506184537 | 52 | 205 | 6.1 | 12.2 | 0.00 | 0.00 | 0.00 | 60 | 1007.1 |
| 20260506183035 | 52 | 176 | 4.3 | 9.6 | 0.00 | 0.00 | 0.00 | 60 | 1007.2 |
| 20260506181539 | 51 | 201 | 3.5 | 9.6 | 0.00 | 0.00 | 0.00 | 64 | 1007.1 |
| 20260506180047 | 50 | 162 | 3.5 | 10.4 | 0.00 | 0.00 | 0.00 | 65 | 1007.3 |
| 20260506174537 | 49 | 212 | 4.3 | 10.4 | 0.00 | 0.00 | 0.00 | 66 | 1007.5 |
| 20260506173037 | 49 | 160 | 3.5 | 7.8 | 0.00 | 0.00 | 0.00 | 66 | 1007.5 |
| 20260506171548 | 48 | 167 | 3.5 | 8.7 | 0.00 | 0.00 | 0.00 | 66 | 1007.3 |
| 20260506170037 | 48 | 193 | 3.5 | 7.8 | 0.00 | 0.00 | 0.00 | 66 | 1007.6 |
| 20260506164533 | 48 | 171 | 2.6 | 7.0 | 0.00 | 0.00 | 0.00 | 66 | 1007.7 |
| 20260506163046 | 49 | 173 | 3.5 | 7.0 | 0.00 | 0.00 | 0.00 | 64 | 1007.5 |
| 20260506161548 | 49 | 194 | 2.6 | 8.7 | 0.00 | 0.00 | 0.00 | 63 | 1007.8 |
| 20260506160038 | 49 | 126 | 3.5 | 7.8 | 0.00 | 0.00 | 0.00 | 64 | 1007.9 |
| 20260506154536 | 49 | 234 | 3.5 | 7.8 | 0.00 | 0.00 | 0.00 | 64 | 1008.0 |
| 20260506153033 | 49 | 184 | 1.7 | 7.0 | 0.00 | 0.00 | 0.00 | 64 | 1007.9 |
| 20260506151540 | 49 | 153 | 0.9 | 6.1 | 0.00 | 0.00 | 0.00 | 63 | 1008.2 |
| 20260506150038 | 48 | 183 | 0.9 | 7.0 | 0.00 | 0.00 | 0.00 | 66 | 1008.5 |
| 20260506144537 | 47 | 206 | 4.3 | 8.7 | 0.00 | 0.00 | 0.00 | 66 | 1008.5 |
| 20260506143037 | 47 | 191 | 3.5 | 8.7 | 0.00 | 0.00 | 0.00 | 67 | 1008.3 |
| 20260506141534 | 47 | 183 | 2.6 | 8.7 | 0.00 | 0.00 | 0.00 | 67 | 1008.1 |
| 20260506140044 | 47 | 218 | 3.5 | 8.7 | 0.00 | 0.00 | 0.00 | 68 | 1008.2 |
| 20260506134607 | 47 | 176 | 3.5 | 7.8 | 0.00 | 0.07 | 0.00 | 68 | 1008.0 |
| 20260506133038 | 47 | 184 | 3.5 | 7.8 | 0.00 | 0.07 | 0.00 | 68 | 1008.0 |
| 20260506131546 | 47 | 169 | 1.7 | 6.1 | 0.00 | 0.07 | 0.00 | 68 | 1008.1 |
| 20260506130037 | 47 | 181 | 2.6 | 7.8 | 0.00 | 0.07 | 0.00 | 67 | 1008.1 |
| 20260506124541 | 47 | 204 | 1.7 | 5.2 | 0.00 | 0.07 | 0.00 | 68 | 1007.9 |
| 20260506123042 | 46 | 271 | 2.6 | 4.3 | 0.00 | 0.07 | 0.00 | 68 | 1008.1 |
| 20260506121539 | 46 | 179 | 1.7 | 3.5 | 0.00 | 0.07 | 0.00 | 68 | 1008.1 |
| 20260506120039 | 46 | 225 | 0.9 | 3.5 | 0.00 | 0.07 | 0.00 | 68 | 1008.1 |
| 20260506114543 | 46 | 195 | 0.9 | 3.5 | 0.00 | 0.07 | 0.00 | 68 | 1008.2 |
| 20260506113037 | 46 | 160 | 0.9 | 3.5 | 0.00 | 0.07 | 0.00 | 68 | 1008.0 |
| 20260506111537 | 46 | 0 | 0.0 | 1.7 | 0.00 | 0.07 | 0.00 | 67 | 1007.9 |
| 20260506110038 | 46 | 0 | 0.0 | 2.6 | 0.00 | 0.07 | 0.00 | 66 | 1007.9 |
| 20260506104541 | 45 | 199 | 0.9 | 2.6 | 0.00 | 0.07 | 0.00 | 65 | 1007.7 |
| 20260506103038 | 45 | 0 | 0.0 | 1.7 | 0.00 | 0.07 | 0.00 | 64 | 1007.9 |
| 20260506101536 | 45 | 0 | 0.0 | 1.7 | 0.00 | 0.07 | 0.00 | 64 | 1008.1 |
| 20260506100036 | 46 | 209 | 0.0 | 2.6 | 0.00 | 0.07 | 0.00 | 63 | 1008.3 |
| 20260506094539 | 46 | 172 | 0.0 | 1.7 | 0.00 | 0.07 | 0.00 | 60 | 1007.8 |
| 20260506093037 | 46 | 0 | 0.0 | 2.6 | 0.00 | 0.07 | 0.00 | 58 | 1007.9 |